sensor_id;sensor_type;location;lat;lon;timestamp;P1;durP1;ratioP1;P2;durP2;ratioP2
71290;SDS011;59073;51.994;4.448;2023-07-31T00:00:30;5.61;;;4.77;;
71290;SDS011;59073;51.994;4.448;2023-07-31T00:02:55;5.55;;;4.58;;
71290;SDS011;59073;51.994;4.448;2023-07-31T00:05:21;5.98;;;5.02;;
71290;SDS011;59073;51.994;4.448;2023-07-31T00:07:46;6.26;;;5.21;;
71290;SDS011;59073;51.994;4.448;2023-07-31T00:10:12;5.50;;;4.58;;
71290;SDS011;59073;51.994;4.448;2023-07-31T00:12:42;5.53;;;4.57;;
71290;SDS011;59073;51.994;4.448;2023-07-31T00:15:09;5.84;;;4.86;;
71290;SDS011;59073;51.994;4.448;2023-07-31T00:17:34;5.10;;;4.39;;
71290;SDS011;59073;51.994;4.448;2023-07-31T00:20:01;5.41;;;4.62;;
71290;SDS011;59073;51.994;4.448;2023-07-31T00:22:26;5.20;;;4.34;;
71290;SDS011;59073;51.994;4.448;2023-07-31T00:24:52;6.17;;;5.15;;
71290;SDS011;59073;51.994;4.448;2023-07-31T00:27:17;6.38;;;5.31;;
71290;SDS011;59073;51.994;4.448;2023-07-31T00:29:43;7.05;;;5.64;;
71290;SDS011;59073;51.994;4.448;2023-07-31T00:32:08;6.16;;;4.91;;
71290;SDS011;59073;51.994;4.448;2023-07-31T00:34:33;6.37;;;5.12;;
71290;SDS011;59073;51.994;4.448;2023-07-31T00:36:59;6.25;;;5.09;;
71290;SDS011;59073;51.994;4.448;2023-07-31T00:39:24;6.32;;;5.14;;
71290;SDS011;59073;51.994;4.448;2023-07-31T00:41:50;7.21;;;5.93;;
71290;SDS011;59073;51.994;4.448;2023-07-31T00:44:15;7.43;;;6.04;;
71290;SDS011;59073;51.994;4.448;2023-07-31T00:46:40;6.22;;;5.18;;
71290;SDS011;59073;51.994;4.448;2023-07-31T00:49:06;6.78;;;5.50;;
71290;SDS011;59073;51.994;4.448;2023-07-31T00:51:33;5.80;;;4.80;;
71290;SDS011;59073;51.994;4.448;2023-07-31T00:53:59;5.13;;;4.41;;
71290;SDS011;59073;51.994;4.448;2023-07-31T00:56:25;5.26;;;4.46;;
71290;SDS011;59073;51.994;4.448;2023-07-31T00:58:51;5.62;;;4.75;;
71290;SDS011;59073;51.994;4.448;2023-07-31T01:01:16;5.73;;;4.69;;
71290;SDS011;59073;51.994;4.448;2023-07-31T01:03:41;4.31;;;3.69;;
71290;SDS011;59073;51.994;4.448;2023-07-31T01:06:14;3.47;;;3.08;;
71290;SDS011;59073;51.994;4.448;2023-07-31T01:11:33;3.33;;;3.08;;
71290;SDS011;59073;51.994;4.448;2023-07-31T01:14:07;3.65;;;3.43;;
71290;SDS011;59073;51.994;4.448;2023-07-31T01:16:33;4.15;;;3.81;;
71290;SDS011;59073;51.994;4.448;2023-07-31T01:18:58;4.57;;;4.13;;
71290;SDS011;59073;51.994;4.448;2023-07-31T01:21:44;5.20;;;4.67;;
71290;SDS011;59073;51.994;4.448;2023-07-31T01:27:43;5.96;;;4.98;;
71290;SDS011;59073;51.994;4.448;2023-07-31T01:30:20;5.85;;;4.87;;
71290;SDS011;59073;51.994;4.448;2023-07-31T01:32:52;6.25;;;5.24;;
71290;SDS011;59073;51.994;4.448;2023-07-31T01:35:21;6.41;;;5.36;;
71290;SDS011;59073;51.994;4.448;2023-07-31T01:37:46;5.61;;;4.79;;
71290;SDS011;59073;51.994;4.448;2023-07-31T01:40:12;6.43;;;5.32;;
71290;SDS011;59073;51.994;4.448;2023-07-31T01:42:37;6.00;;;5.03;;
71290;SDS011;59073;51.994;4.448;2023-07-31T01:45:03;6.38;;;5.24;;
71290;SDS011;59073;51.994;4.448;2023-07-31T01:47:29;5.82;;;4.78;;
71290;SDS011;59073;51.994;4.448;2023-07-31T01:49:54;5.69;;;4.67;;
71290;SDS011;59073;51.994;4.448;2023-07-31T01:52:19;5.86;;;4.87;;
71290;SDS011;59073;51.994;4.448;2023-07-31T01:54:45;6.35;;;5.20;;
71290;SDS011;59073;51.994;4.448;2023-07-31T01:57:10;6.18;;;5.02;;
71290;SDS011;59073;51.994;4.448;2023-07-31T01:59:36;6.31;;;5.22;;
71290;SDS011;59073;51.994;4.448;2023-07-31T02:02:01;7.05;;;5.86;;
71290;SDS011;59073;51.994;4.448;2023-07-31T02:04:26;6.88;;;5.76;;
71290;SDS011;59073;51.994;4.448;2023-07-31T02:06:52;6.41;;;5.55;;
71290;SDS011;59073;51.994;4.448;2023-07-31T02:09:18;5.98;;;5.21;;
71290;SDS011;59073;51.994;4.448;2023-07-31T02:11:44;5.81;;;5.04;;
71290;SDS011;59073;51.994;4.448;2023-07-31T02:14:09;5.35;;;4.72;;
71290;SDS011;59073;51.994;4.448;2023-07-31T02:16:35;6.45;;;5.59;;
71290;SDS011;59073;51.994;4.448;2023-07-31T02:19:00;5.81;;;5.04;;
71290;SDS011;59073;51.994;4.448;2023-07-31T02:21:25;6.10;;;5.31;;
71290;SDS011;59073;51.994;4.448;2023-07-31T02:23:51;6.06;;;5.28;;
71290;SDS011;59073;51.994;4.448;2023-07-31T02:26:16;6.34;;;5.44;;
71290;SDS011;59073;51.994;4.448;2023-07-31T02:28:42;5.22;;;4.63;;
71290;SDS011;59073;51.994;4.448;2023-07-31T02:31:08;6.18;;;5.40;;
71290;SDS011;59073;51.994;4.448;2023-07-31T02:33:33;6.79;;;5.73;;
71290;SDS011;59073;51.994;4.448;2023-07-31T02:35:59;6.55;;;5.56;;
71290;SDS011;59073;51.994;4.448;2023-07-31T02:38:24;6.72;;;5.96;;
71290;SDS011;59073;51.994;4.448;2023-07-31T02:40:50;6.12;;;5.53;;
71290;SDS011;59073;51.994;4.448;2023-07-31T02:43:15;5.39;;;4.95;;
71290;SDS011;59073;51.994;4.448;2023-07-31T02:45:40;5.25;;;4.72;;
71290;SDS011;59073;51.994;4.448;2023-07-31T02:48:06;5.37;;;4.67;;
71290;SDS011;59073;51.994;4.448;2023-07-31T02:50:32;5.07;;;4.40;;
71290;SDS011;59073;51.994;4.448;2023-07-31T02:52:58;5.96;;;5.12;;
71290;SDS011;59073;51.994;4.448;2023-07-31T02:55:23;5.25;;;4.50;;
71290;SDS011;59073;51.994;4.448;2023-07-31T02:57:49;5.53;;;4.77;;
71290;SDS011;59073;51.994;4.448;2023-07-31T03:00:14;5.62;;;4.72;;
71290;SDS011;59073;51.994;4.448;2023-07-31T03:02:40;5.46;;;4.74;;
71290;SDS011;59073;51.994;4.448;2023-07-31T03:05:05;5.67;;;4.80;;
71290;SDS011;59073;51.994;4.448;2023-07-31T03:07:31;6.01;;;5.17;;
71290;SDS011;59073;51.994;4.448;2023-07-31T03:09:56;5.30;;;4.57;;
71290;SDS011;59073;51.994;4.448;2023-07-31T03:12:21;5.66;;;4.88;;
71290;SDS011;59073;51.994;4.448;2023-07-31T03:14:47;4.70;;;4.08;;
71290;SDS011;59073;51.994;4.448;2023-07-31T03:17:12;5.83;;;4.93;;
71290;SDS011;59073;51.994;4.448;2023-07-31T03:19:38;5.06;;;4.30;;
71290;SDS011;59073;51.994;4.448;2023-07-31T03:22:03;5.13;;;4.44;;
71290;SDS011;59073;51.994;4.448;2023-07-31T03:24:29;4.93;;;4.33;;
71290;SDS011;59073;51.994;4.448;2023-07-31T03:26:54;4.87;;;4.32;;
71290;SDS011;59073;51.994;4.448;2023-07-31T03:29:20;4.87;;;4.21;;
71290;SDS011;59073;51.994;4.448;2023-07-31T03:31:45;4.66;;;4.07;;
71290;SDS011;59073;51.994;4.448;2023-07-31T03:34:10;4.69;;;4.13;;
71290;SDS011;59073;51.994;4.448;2023-07-31T03:36:36;5.15;;;4.47;;
71290;SDS011;59073;51.994;4.448;2023-07-31T03:39:02;4.96;;;4.20;;
71290;SDS011;59073;51.994;4.448;2023-07-31T03:41:28;4.79;;;4.06;;
71290;SDS011;59073;51.994;4.448;2023-07-31T03:43:53;4.67;;;4.03;;
71290;SDS011;59073;51.994;4.448;2023-07-31T03:46:21;4.37;;;3.87;;
71290;SDS011;59073;51.994;4.448;2023-07-31T03:48:47;4.79;;;4.20;;
71290;SDS011;59073;51.994;4.448;2023-07-31T03:51:13;4.43;;;3.90;;
71290;SDS011;59073;51.994;4.448;2023-07-31T03:53:39;4.22;;;3.74;;
71290;SDS011;59073;51.994;4.448;2023-07-31T03:56:04;4.41;;;3.91;;
71290;SDS011;59073;51.994;4.448;2023-07-31T03:58:29;4.32;;;3.88;;
71290;SDS011;59073;51.994;4.448;2023-07-31T04:00:55;3.49;;;3.14;;
71290;SDS011;59073;51.994;4.448;2023-07-31T04:03:20;2.48;;;2.24;;
71290;SDS011;59073;51.994;4.448;2023-07-31T04:05:46;2.14;;;1.95;;
71290;SDS011;59073;51.994;4.448;2023-07-31T04:08:11;1.77;;;1.63;;
71290;SDS011;59073;51.994;4.448;2023-07-31T04:10:36;1.90;;;1.77;;
71290;SDS011;59073;51.994;4.448;2023-07-31T04:13:02;2.06;;;1.95;;
71290;SDS011;59073;51.994;4.448;2023-07-31T04:15:27;1.87;;;1.77;;
71290;SDS011;59073;51.994;4.448;2023-07-31T04:17:53;2.08;;;2.00;;
71290;SDS011;59073;51.994;4.448;2023-07-31T04:20:18;1.71;;;1.65;;
71290;SDS011;59073;51.994;4.448;2023-07-31T04:22:43;1.71;;;1.66;;
71290;SDS011;59073;51.994;4.448;2023-07-31T04:25:09;1.66;;;1.62;;
71290;SDS011;59073;51.994;4.448;2023-07-31T04:27:34;1.50;;;1.48;;
71290;SDS011;59073;51.994;4.448;2023-07-31T04:30:00;1.27;;;1.25;;
71290;SDS011;59073;51.994;4.448;2023-07-31T04:32:25;1.25;;;1.22;;
71290;SDS011;59073;51.994;4.448;2023-07-31T04:34:50;1.47;;;1.44;;
71290;SDS011;59073;51.994;4.448;2023-07-31T04:37:16;1.26;;;1.24;;
71290;SDS011;59073;51.994;4.448;2023-07-31T04:39:41;1.40;;;1.39;;
71290;SDS011;59073;51.994;4.448;2023-07-31T04:42:07;1.74;;;1.72;;
71290;SDS011;59073;51.994;4.448;2023-07-31T04:44:32;1.69;;;1.68;;
71290;SDS011;59073;51.994;4.448;2023-07-31T04:46:58;2.10;;;2.10;;
71290;SDS011;59073;51.994;4.448;2023-07-31T04:49:23;1.88;;;1.87;;
71290;SDS011;59073;51.994;4.448;2023-07-31T04:51:49;2.03;;;2.02;;
71290;SDS011;59073;51.994;4.448;2023-07-31T04:54:14;2.08;;;2.08;;
71290;SDS011;59073;51.994;4.448;2023-07-31T04:56:42;2.11;;;2.11;;
71290;SDS011;59073;51.994;4.448;2023-07-31T04:59:08;2.05;;;2.05;;
71290;SDS011;59073;51.994;4.448;2023-07-31T05:01:33;1.99;;;1.97;;
71290;SDS011;59073;51.994;4.448;2023-07-31T05:03:58;2.04;;;2.02;;
71290;SDS011;59073;51.994;4.448;2023-07-31T05:06:24;2.17;;;2.15;;
71290;SDS011;59073;51.994;4.448;2023-07-31T05:08:49;2.01;;;1.99;;
71290;SDS011;59073;51.994;4.448;2023-07-31T05:11:15;1.74;;;1.71;;
71290;SDS011;59073;51.994;4.448;2023-07-31T05:13:40;1.61;;;1.58;;
71290;SDS011;59073;51.994;4.448;2023-07-31T05:16:06;1.53;;;1.49;;
71290;SDS011;59073;51.994;4.448;2023-07-31T05:18:31;1.64;;;1.60;;
71290;SDS011;59073;51.994;4.448;2023-07-31T05:20:56;1.66;;;1.63;;
71290;SDS011;59073;51.994;4.448;2023-07-31T05:23:22;1.38;;;1.36;;
71290;SDS011;59073;51.994;4.448;2023-07-31T05:25:47;1.51;;;1.48;;
71290;SDS011;59073;51.994;4.448;2023-07-31T05:28:13;1.57;;;1.55;;
71290;SDS011;59073;51.994;4.448;2023-07-31T05:30:38;1.51;;;1.49;;
71290;SDS011;59073;51.994;4.448;2023-07-31T05:33:03;1.24;;;1.22;;
71290;SDS011;59073;51.994;4.448;2023-07-31T05:35:29;1.37;;;1.35;;
71290;SDS011;59073;51.994;4.448;2023-07-31T05:37:54;1.25;;;1.23;;
71290;SDS011;59073;51.994;4.448;2023-07-31T05:40:20;1.37;;;1.35;;
71290;SDS011;59073;51.994;4.448;2023-07-31T05:42:45;1.46;;;1.44;;
71290;SDS011;59073;51.994;4.448;2023-07-31T05:45:11;1.43;;;1.41;;
71290;SDS011;59073;51.994;4.448;2023-07-31T05:47:36;1.29;;;1.27;;
71290;SDS011;59073;51.994;4.448;2023-07-31T05:50:01;1.20;;;1.19;;
71290;SDS011;59073;51.994;4.448;2023-07-31T05:52:27;1.11;;;1.10;;
71290;SDS011;59073;51.994;4.448;2023-07-31T05:54:54;1.25;;;1.25;;
71290;SDS011;59073;51.994;4.448;2023-07-31T05:57:19;1.42;;;1.41;;
71290;SDS011;59073;51.994;4.448;2023-07-31T05:59:45;1.29;;;1.28;;
71290;SDS011;59073;51.994;4.448;2023-07-31T06:02:10;1.62;;;1.61;;
71290;SDS011;59073;51.994;4.448;2023-07-31T06:04:36;1.32;;;1.31;;
71290;SDS011;59073;51.994;4.448;2023-07-31T06:07:01;1.42;;;1.41;;
71290;SDS011;59073;51.994;4.448;2023-07-31T06:09:28;1.21;;;1.21;;
71290;SDS011;59073;51.994;4.448;2023-07-31T06:11:53;1.20;;;1.20;;
71290;SDS011;59073;51.994;4.448;2023-07-31T06:14:18;1.24;;;1.24;;
71290;SDS011;59073;51.994;4.448;2023-07-31T06:16:44;1.28;;;1.28;;
71290;SDS011;59073;51.994;4.448;2023-07-31T06:19:09;1.20;;;1.20;;
71290;SDS011;59073;51.994;4.448;2023-07-31T06:21:35;1.19;;;1.19;;
71290;SDS011;59073;51.994;4.448;2023-07-31T06:24:03;1.07;;;1.07;;
71290;SDS011;59073;51.994;4.448;2023-07-31T06:26:28;0.78;;;0.78;;
71290;SDS011;59073;51.994;4.448;2023-07-31T06:28:54;0.59;;;0.58;;
71290;SDS011;59073;51.994;4.448;2023-07-31T06:31:19;0.86;;;0.86;;
71290;SDS011;59073;51.994;4.448;2023-07-31T06:33:48;0.80;;;0.79;;
71290;SDS011;59073;51.994;4.448;2023-07-31T06:36:14;0.76;;;0.75;;
71290;SDS011;59073;51.994;4.448;2023-07-31T06:38:39;0.78;;;0.77;;
71290;SDS011;59073;51.994;4.448;2023-07-31T06:41:05;0.77;;;0.76;;
71290;SDS011;59073;51.994;4.448;2023-07-31T06:43:30;0.71;;;0.70;;
71290;SDS011;59073;51.994;4.448;2023-07-31T06:45:56;0.71;;;0.70;;
71290;SDS011;59073;51.994;4.448;2023-07-31T06:48:21;0.58;;;0.58;;
71290;SDS011;59073;51.994;4.448;2023-07-31T06:50:47;0.42;;;0.42;;
71290;SDS011;59073;51.994;4.448;2023-07-31T06:53:12;0.66;;;0.66;;
71290;SDS011;59073;51.994;4.448;2023-07-31T06:55:38;0.66;;;0.66;;
71290;SDS011;59073;51.994;4.448;2023-07-31T06:58:03;0.53;;;0.53;;
71290;SDS011;59073;51.994;4.448;2023-07-31T07:00:28;0.62;;;0.62;;
71290;SDS011;59073;51.994;4.448;2023-07-31T07:02:54;0.61;;;0.61;;
71290;SDS011;59073;51.994;4.448;2023-07-31T07:05:19;0.59;;;0.59;;
71290;SDS011;59073;51.994;4.448;2023-07-31T07:07:45;0.49;;;0.49;;
71290;SDS011;59073;51.994;4.448;2023-07-31T07:10:10;0.62;;;0.62;;
71290;SDS011;59073;51.994;4.448;2023-07-31T07:12:36;0.52;;;0.52;;
71290;SDS011;59073;51.994;4.448;2023-07-31T07:15:02;0.71;;;0.71;;
71290;SDS011;59073;51.994;4.448;2023-07-31T07:17:28;0.58;;;0.58;;
71290;SDS011;59073;51.994;4.448;2023-07-31T07:19:58;0.56;;;0.56;;
71290;SDS011;59073;51.994;4.448;2023-07-31T07:22:24;0.68;;;0.68;;
71290;SDS011;59073;51.994;4.448;2023-07-31T07:24:50;0.58;;;0.58;;
71290;SDS011;59073;51.994;4.448;2023-07-31T07:27:16;0.56;;;0.56;;
71290;SDS011;59073;51.994;4.448;2023-07-31T07:29:41;0.50;;;0.50;;
71290;SDS011;59073;51.994;4.448;2023-07-31T07:32:07;0.46;;;0.46;;
71290;SDS011;59073;51.994;4.448;2023-07-31T07:34:32;0.38;;;0.38;;
71290;SDS011;59073;51.994;4.448;2023-07-31T07:36:58;0.59;;;0.59;;
71290;SDS011;59073;51.994;4.448;2023-07-31T07:39:23;0.51;;;0.51;;
71290;SDS011;59073;51.994;4.448;2023-07-31T07:41:48;0.53;;;0.53;;
71290;SDS011;59073;51.994;4.448;2023-07-31T07:44:14;0.46;;;0.46;;
71290;SDS011;59073;51.994;4.448;2023-07-31T07:46:39;0.60;;;0.60;;
71290;SDS011;59073;51.994;4.448;2023-07-31T07:49:05;0.43;;;0.43;;
71290;SDS011;59073;51.994;4.448;2023-07-31T07:51:31;0.60;;;0.60;;
71290;SDS011;59073;51.994;4.448;2023-07-31T07:54:00;0.36;;;0.36;;
71290;SDS011;59073;51.994;4.448;2023-07-31T07:56:26;0.24;;;0.24;;
71290;SDS011;59073;51.994;4.448;2023-07-31T07:58:52;0.34;;;0.34;;
71290;SDS011;59073;51.994;4.448;2023-07-31T08:01:19;0.40;;;0.40;;
71290;SDS011;59073;51.994;4.448;2023-07-31T08:03:44;0.30;;;0.30;;
71290;SDS011;59073;51.994;4.448;2023-07-31T08:06:12;0.26;;;0.26;;
71290;SDS011;59073;51.994;4.448;2023-07-31T08:08:37;0.33;;;0.33;;
71290;SDS011;59073;51.994;4.448;2023-07-31T08:11:03;0.40;;;0.40;;
71290;SDS011;59073;51.994;4.448;2023-07-31T08:13:28;0.39;;;0.39;;
71290;SDS011;59073;51.994;4.448;2023-07-31T08:15:54;0.42;;;0.42;;
71290;SDS011;59073;51.994;4.448;2023-07-31T08:18:20;0.37;;;0.37;;
71290;SDS011;59073;51.994;4.448;2023-07-31T08:20:45;0.51;;;0.51;;
71290;SDS011;59073;51.994;4.448;2023-07-31T08:23:11;0.33;;;0.33;;
71290;SDS011;59073;51.994;4.448;2023-07-31T08:25:37;0.42;;;0.42;;
71290;SDS011;59073;51.994;4.448;2023-07-31T08:28:03;0.56;;;0.56;;
71290;SDS011;59073;51.994;4.448;2023-07-31T08:30:29;0.45;;;0.45;;
71290;SDS011;59073;51.994;4.448;2023-07-31T08:32:55;0.65;;;0.65;;
71290;SDS011;59073;51.994;4.448;2023-07-31T08:35:20;0.49;;;0.49;;
71290;SDS011;59073;51.994;4.448;2023-07-31T08:37:46;0.34;;;0.34;;
71290;SDS011;59073;51.994;4.448;2023-07-31T08:40:11;0.43;;;0.42;;
71290;SDS011;59073;51.994;4.448;2023-07-31T08:42:43;0.48;;;0.48;;
71290;SDS011;59073;51.994;4.448;2023-07-31T08:45:10;0.63;;;0.61;;
71290;SDS011;59073;51.994;4.448;2023-07-31T08:47:39;0.65;;;0.63;;
71290;SDS011;59073;51.994;4.448;2023-07-31T08:50:06;0.70;;;0.68;;
71290;SDS011;59073;51.994;4.448;2023-07-31T08:52:32;0.74;;;0.71;;
71290;SDS011;59073;51.994;4.448;2023-07-31T08:54:58;0.84;;;0.80;;
71290;SDS011;59073;51.994;4.448;2023-07-31T08:57:24;0.86;;;0.82;;
71290;SDS011;59073;51.994;4.448;2023-07-31T08:59:49;1.23;;;1.16;;
71290;SDS011;59073;51.994;4.448;2023-07-31T09:02:16;1.53;;;1.42;;
71290;SDS011;59073;51.994;4.448;2023-07-31T09:04:44;1.31;;;1.20;;
71290;SDS011;59073;51.994;4.448;2023-07-31T09:07:11;1.39;;;1.23;;
71290;SDS011;59073;51.994;4.448;2023-07-31T09:09:38;1.78;;;1.57;;
71290;SDS011;59073;51.994;4.448;2023-07-31T09:12:04;1.82;;;1.54;;
71290;SDS011;59073;51.994;4.448;2023-07-31T09:14:30;2.01;;;1.70;;
71290;SDS011;59073;51.994;4.448;2023-07-31T09:16:58;1.50;;;1.27;;
71290;SDS011;59073;51.994;4.448;2023-07-31T09:19:29;1.21;;;1.01;;
71290;SDS011;59073;51.994;4.448;2023-07-31T09:21:59;1.73;;;1.46;;
71290;SDS011;59073;51.994;4.448;2023-07-31T09:24:25;1.42;;;1.18;;
71290;SDS011;59073;51.994;4.448;2023-07-31T09:26:53;0.96;;;0.83;;
71290;SDS011;59073;51.994;4.448;2023-07-31T09:29:23;0.95;;;0.83;;
71290;SDS011;59073;51.994;4.448;2023-07-31T09:31:51;0.80;;;0.72;;
71290;SDS011;59073;51.994;4.448;2023-07-31T09:34:18;0.82;;;0.75;;
71290;SDS011;59073;51.994;4.448;2023-07-31T09:36:44;0.67;;;0.62;;
71290;SDS011;59073;51.994;4.448;2023-07-31T09:39:12;0.87;;;0.80;;
71290;SDS011;59073;51.994;4.448;2023-07-31T09:41:39;0.87;;;0.80;;
71290;SDS011;59073;51.994;4.448;2023-07-31T09:44:06;0.78;;;0.72;;
71290;SDS011;59073;51.994;4.448;2023-07-31T09:46:32;0.74;;;0.69;;
71290;SDS011;59073;51.994;4.448;2023-07-31T09:49:04;0.73;;;0.69;;
71290;SDS011;59073;51.994;4.448;2023-07-31T09:51:34;0.84;;;0.79;;
71290;SDS011;59073;51.994;4.448;2023-07-31T09:54:04;0.89;;;0.84;;
71290;SDS011;59073;51.994;4.448;2023-07-31T09:56:41;0.97;;;0.92;;
71290;SDS011;59073;51.994;4.448;2023-07-31T09:59:10;0.98;;;0.92;;
71290;SDS011;59073;51.994;4.448;2023-07-31T10:01:38;1.10;;;1.04;;
71290;SDS011;59073;51.994;4.448;2023-07-31T10:04:05;1.22;;;1.15;;
71290;SDS011;59073;51.994;4.448;2023-07-31T10:06:34;0.89;;;0.84;;
71290;SDS011;59073;51.994;4.448;2023-07-31T10:09:01;1.03;;;0.98;;
71290;SDS011;59073;51.994;4.448;2023-07-31T10:11:28;1.13;;;1.06;;
71290;SDS011;59073;51.994;4.448;2023-07-31T10:13:58;1.11;;;1.05;;
71290;SDS011;59073;51.994;4.448;2023-07-31T10:16:25;1.44;;;1.33;;
71290;SDS011;59073;51.994;4.448;2023-07-31T10:18:51;1.37;;;1.24;;
71290;SDS011;59073;51.994;4.448;2023-07-31T10:21:19;1.26;;;1.13;;
71290;SDS011;59073;51.994;4.448;2023-07-31T10:23:44;1.54;;;1.39;;
71290;SDS011;59073;51.994;4.448;2023-07-31T10:26:11;1.30;;;1.17;;
71290;SDS011;59073;51.994;4.448;2023-07-31T10:28:39;1.49;;;1.35;;
71290;SDS011;59073;51.994;4.448;2023-07-31T10:31:06;1.49;;;1.40;;
71290;SDS011;59073;51.994;4.448;2023-07-31T10:33:33;1.70;;;1.57;;
71290;SDS011;59073;51.994;4.448;2023-07-31T10:36:19;1.85;;;1.66;;
71290;SDS011;59073;51.994;4.448;2023-07-31T10:38:45;1.69;;;1.51;;
71290;SDS011;59073;51.994;4.448;2023-07-31T10:41:14;2.26;;;1.98;;
71290;SDS011;59073;51.994;4.448;2023-07-31T10:43:40;1.91;;;1.63;;
71290;SDS011;59073;51.994;4.448;2023-07-31T10:46:09;1.99;;;1.69;;
71290;SDS011;59073;51.994;4.448;2023-07-31T10:48:38;1.87;;;1.60;;
71290;SDS011;59073;51.994;4.448;2023-07-31T10:51:09;1.96;;;1.69;;
71290;SDS011;59073;51.994;4.448;2023-07-31T10:53:37;1.96;;;1.70;;
71290;SDS011;59073;51.994;4.448;2023-07-31T10:58:30;1.82;;;1.56;;
71290;SDS011;59073;51.994;4.448;2023-07-31T11:01:03;1.64;;;1.41;;
71290;SDS011;59073;51.994;4.448;2023-07-31T11:03:51;1.94;;;1.69;;
71290;SDS011;59073;51.994;4.448;2023-07-31T11:06:18;1.96;;;1.73;;
71290;SDS011;59073;51.994;4.448;2023-07-31T11:08:45;1.74;;;1.50;;
71290;SDS011;59073;51.994;4.448;2023-07-31T11:11:13;2.06;;;1.76;;
71290;SDS011;59073;51.994;4.448;2023-07-31T11:13:42;1.60;;;1.36;;
71290;SDS011;59073;51.994;4.448;2023-07-31T11:16:14;2.17;;;1.84;;
71290;SDS011;59073;51.994;4.448;2023-07-31T11:18:41;2.02;;;1.70;;
71290;SDS011;59073;51.994;4.448;2023-07-31T11:21:12;1.85;;;1.56;;
71290;SDS011;59073;51.994;4.448;2023-07-31T11:23:39;1.67;;;1.44;;
71290;SDS011;59073;51.994;4.448;2023-07-31T11:26:04;1.42;;;1.25;;
71290;SDS011;59073;51.994;4.448;2023-07-31T11:28:32;1.76;;;1.54;;
71290;SDS011;59073;51.994;4.448;2023-07-31T11:31:02;1.59;;;1.38;;
71290;SDS011;59073;51.994;4.448;2023-07-31T11:33:28;1.70;;;1.49;;
71290;SDS011;59073;51.994;4.448;2023-07-31T11:35:53;1.62;;;1.40;;
71290;SDS011;59073;51.994;4.448;2023-07-31T11:38:26;1.59;;;1.35;;
71290;SDS011;59073;51.994;4.448;2023-07-31T11:40:54;1.55;;;1.32;;
71290;SDS011;59073;51.994;4.448;2023-07-31T11:43:22;1.63;;;1.38;;
71290;SDS011;59073;51.994;4.448;2023-07-31T11:45:52;2.00;;;1.69;;
71290;SDS011;59073;51.994;4.448;2023-07-31T11:48:21;1.83;;;1.52;;
71290;SDS011;59073;51.994;4.448;2023-07-31T11:50:52;1.47;;;1.25;;
71290;SDS011;59073;51.994;4.448;2023-07-31T11:53:35;1.46;;;1.27;;
71290;SDS011;59073;51.994;4.448;2023-07-31T11:56:03;2.16;;;1.88;;
71290;SDS011;59073;51.994;4.448;2023-07-31T11:58:31;1.45;;;1.29;;
71290;SDS011;59073;51.994;4.448;2023-07-31T12:01:00;1.41;;;1.27;;
71290;SDS011;59073;51.994;4.448;2023-07-31T12:03:27;1.72;;;1.56;;
71290;SDS011;59073;51.994;4.448;2023-07-31T12:05:53;1.48;;;1.35;;
71290;SDS011;59073;51.994;4.448;2023-07-31T12:08:20;1.34;;;1.23;;
71290;SDS011;59073;51.994;4.448;2023-07-31T12:10:49;1.49;;;1.37;;
71290;SDS011;59073;51.994;4.448;2023-07-31T12:13:23;1.29;;;1.20;;
71290;SDS011;59073;51.994;4.448;2023-07-31T12:15:54;1.12;;;1.06;;
71290;SDS011;59073;51.994;4.448;2023-07-31T12:18:23;1.30;;;1.24;;
71290;SDS011;59073;51.994;4.448;2023-07-31T12:20:54;1.27;;;1.21;;
71290;SDS011;59073;51.994;4.448;2023-07-31T12:23:31;1.38;;;1.32;;
71290;SDS011;59073;51.994;4.448;2023-07-31T12:26:04;1.72;;;1.66;;
71290;SDS011;59073;51.994;4.448;2023-07-31T12:28:41;1.57;;;1.51;;
71290;SDS011;59073;51.994;4.448;2023-07-31T12:31:09;1.48;;;1.43;;
71290;SDS011;59073;51.994;4.448;2023-07-31T12:33:40;1.51;;;1.45;;
71290;SDS011;59073;51.994;4.448;2023-07-31T12:36:10;1.77;;;1.71;;
71290;SDS011;59073;51.994;4.448;2023-07-31T12:38:40;1.67;;;1.65;;
71290;SDS011;59073;51.994;4.448;2023-07-31T12:41:07;1.44;;;1.43;;
71290;SDS011;59073;51.994;4.448;2023-07-31T12:43:33;1.31;;;1.30;;
71290;SDS011;59073;51.994;4.448;2023-07-31T12:46:00;1.44;;;1.39;;
71290;SDS011;59073;51.994;4.448;2023-07-31T12:48:25;1.31;;;1.31;;
71290;SDS011;59073;51.994;4.448;2023-07-31T12:50:50;1.47;;;1.47;;
71290;SDS011;59073;51.994;4.448;2023-07-31T12:53:16;1.40;;;1.40;;
71290;SDS011;59073;51.994;4.448;2023-07-31T12:55:42;0.87;;;0.87;;
71290;SDS011;59073;51.994;4.448;2023-07-31T12:58:07;0.97;;;0.97;;
71290;SDS011;59073;51.994;4.448;2023-07-31T13:00:33;1.06;;;1.06;;
71290;SDS011;59073;51.994;4.448;2023-07-31T13:02:58;0.99;;;0.99;;
71290;SDS011;59073;51.994;4.448;2023-07-31T13:05:25;1.28;;;1.28;;
71290;SDS011;59073;51.994;4.448;2023-07-31T13:07:50;1.14;;;1.14;;
71290;SDS011;59073;51.994;4.448;2023-07-31T13:10:16;0.99;;;0.99;;
71290;SDS011;59073;51.994;4.448;2023-07-31T13:12:41;0.84;;;0.84;;
71290;SDS011;59073;51.994;4.448;2023-07-31T13:15:07;1.01;;;1.01;;
71290;SDS011;59073;51.994;4.448;2023-07-31T13:17:33;0.73;;;0.73;;
71290;SDS011;59073;51.994;4.448;2023-07-31T13:19:58;0.81;;;0.81;;
71290;SDS011;59073;51.994;4.448;2023-07-31T13:22:24;0.72;;;0.72;;
71290;SDS011;59073;51.994;4.448;2023-07-31T13:24:49;0.79;;;0.79;;
71290;SDS011;59073;51.994;4.448;2023-07-31T13:27:15;0.70;;;0.70;;
71290;SDS011;59073;51.994;4.448;2023-07-31T13:29:45;0.59;;;0.59;;
71290;SDS011;59073;51.994;4.448;2023-07-31T13:32:11;0.57;;;0.57;;
71290;SDS011;59073;51.994;4.448;2023-07-31T13:34:37;0.42;;;0.42;;
71290;SDS011;59073;51.994;4.448;2023-07-31T13:37:03;0.55;;;0.55;;
71290;SDS011;59073;51.994;4.448;2023-07-31T13:39:28;0.44;;;0.44;;
71290;SDS011;59073;51.994;4.448;2023-07-31T13:41:54;0.49;;;0.49;;
71290;SDS011;59073;51.994;4.448;2023-07-31T13:44:20;0.46;;;0.46;;
71290;SDS011;59073;51.994;4.448;2023-07-31T13:46:45;0.45;;;0.45;;
71290;SDS011;59073;51.994;4.448;2023-07-31T13:49:10;0.55;;;0.55;;
71290;SDS011;59073;51.994;4.448;2023-07-31T13:51:36;0.48;;;0.48;;
71290;SDS011;59073;51.994;4.448;2023-07-31T13:54:03;0.29;;;0.29;;
71290;SDS011;59073;51.994;4.448;2023-07-31T13:56:28;0.40;;;0.40;;
71290;SDS011;59073;51.994;4.448;2023-07-31T13:58:53;0.37;;;0.37;;
71290;SDS011;59073;51.994;4.448;2023-07-31T14:01:19;0.37;;;0.37;;
71290;SDS011;59073;51.994;4.448;2023-07-31T14:03:44;0.41;;;0.41;;
71290;SDS011;59073;51.994;4.448;2023-07-31T14:06:10;0.29;;;0.29;;
71290;SDS011;59073;51.994;4.448;2023-07-31T14:08:35;0.45;;;0.45;;
71290;SDS011;59073;51.994;4.448;2023-07-31T14:11:01;0.35;;;0.35;;
71290;SDS011;59073;51.994;4.448;2023-07-31T14:13:26;0.41;;;0.41;;
71290;SDS011;59073;51.994;4.448;2023-07-31T14:15:51;0.33;;;0.33;;
71290;SDS011;59073;51.994;4.448;2023-07-31T14:18:18;0.57;;;0.57;;
71290;SDS011;59073;51.994;4.448;2023-07-31T14:20:43;0.46;;;0.46;;
71290;SDS011;59073;51.994;4.448;2023-07-31T14:23:09;0.47;;;0.47;;
71290;SDS011;59073;51.994;4.448;2023-07-31T14:25:34;0.40;;;0.40;;
71290;SDS011;59073;51.994;4.448;2023-07-31T14:28:00;0.37;;;0.37;;
71290;SDS011;59073;51.994;4.448;2023-07-31T14:30:25;0.31;;;0.31;;
71290;SDS011;59073;51.994;4.448;2023-07-31T14:32:51;0.41;;;0.41;;
71290;SDS011;59073;51.994;4.448;2023-07-31T14:35:16;0.41;;;0.41;;
71290;SDS011;59073;51.994;4.448;2023-07-31T14:37:42;0.29;;;0.29;;
71290;SDS011;59073;51.994;4.448;2023-07-31T14:40:10;0.32;;;0.32;;
71290;SDS011;59073;51.994;4.448;2023-07-31T14:42:36;0.34;;;0.34;;
71290;SDS011;59073;51.994;4.448;2023-07-31T14:45:03;0.43;;;0.43;;
71290;SDS011;59073;51.994;4.448;2023-07-31T14:47:32;0.33;;;0.33;;
71290;SDS011;59073;51.994;4.448;2023-07-31T14:49:58;0.22;;;0.22;;
71290;SDS011;59073;51.994;4.448;2023-07-31T14:52:25;0.36;;;0.36;;